LHBC 211445Z 00000KT 9999 FEW050TCU BKN200 30/18 Q1011        

LHBP 211630Z 17005KT 140V200 CAVOK 30/18 Q1010 NOSIG        

LHDC 211615Z 22004KT CAVOK 29/15 Q1011 NOSIG        

LHKE 211615Z 13002KT CAVOK 30/16 Q1010 NOSIG RMK BLU        

LHPA 211615Z 19012KT 160V230 9999 SCT047TCU SCT200 29/18 Q1009 TEMPO SHRA TSRA RMK BLU        

LHPP 211615Z 20004KT CAVOK 29/17 Q1011        

LHPR 211615Z AUTO 11005KT 050V200 9999 VCTS FEW069CB 29/18 Q1009 RMK BLU        

LHSM 211615Z 21009KT CAVOK 28/20 Q1010 NOSIG        

LHSN 211615Z 28002KT CAVOK 31/13 Q1010 NOSIG RMK BLU        

LHUD 211615Z 19007KT CAVOK 31/18 Q1011